sensor_id;sensor_type;location;lat;lon;timestamp;temperature;humidity
16060;DHT22;8134;49.552;7.632;2023-03-23T06:43:29;12.40;99.90
16060;DHT22;8134;49.552;7.632;2023-03-23T06:45:57;12.50;99.90
16060;DHT22;8134;49.552;7.632;2023-03-23T06:48:23;12.60;99.90
16060;DHT22;8134;49.552;7.632;2023-03-23T06:50:49;12.60;99.90
16060;DHT22;8134;49.552;7.632;2023-03-23T06:53:15;12.60;99.90
16060;DHT22;8134;49.552;7.632;2023-03-23T06:55:43;12.80;99.90
16060;DHT22;8134;49.552;7.632;2023-03-23T06:58:08;12.90;99.90
16060;DHT22;8134;49.552;7.632;2023-03-23T07:00:34;13.00;99.90
16060;DHT22;8134;49.552;7.632;2023-03-23T07:03:00;13.00;99.90
16060;DHT22;8134;49.552;7.632;2023-03-23T07:05:25;13.10;99.90
16060;DHT22;8134;49.552;7.632;2023-03-23T07:07:51;12.80;99.90
16060;DHT22;8134;49.552;7.632;2023-03-23T07:10:17;12.90;99.90
16060;DHT22;8134;49.552;7.632;2023-03-23T07:12:42;12.80;99.90
16060;DHT22;8134;49.552;7.632;2023-03-23T07:15:08;12.90;99.90
16060;DHT22;8134;49.552;7.632;2023-03-23T07:17:36;12.80;99.90
16060;DHT22;8134;49.552;7.632;2023-03-23T07:20:03;12.80;99.90
16060;DHT22;8134;49.552;7.632;2023-03-23T07:22:30;12.80;99.90
16060;DHT22;8134;49.552;7.632;2023-03-23T07:24:55;12.80;99.90
16060;DHT22;8134;49.552;7.632;2023-03-23T07:27:21;12.80;99.90
16060;DHT22;8134;49.552;7.632;2023-03-23T07:29:46;12.80;99.90
16060;DHT22;8134;49.552;7.632;2023-03-23T07:32:12;12.80;99.90
16060;DHT22;8134;49.552;7.632;2023-03-23T07:34:38;13.00;99.90
16060;DHT22;8134;49.552;7.632;2023-03-23T07:37:04;13.10;99.90
16060;DHT22;8134;49.552;7.632;2023-03-23T07:39:30;13.20;99.90
16060;DHT22;8134;49.552;7.632;2023-03-23T07:41:56;13.20;99.90
16060;DHT22;8134;49.552;7.632;2023-03-23T07:44:22;13.30;99.90
16060;DHT22;8134;49.552;7.632;2023-03-23T07:46:47;13.30;99.90
16060;DHT22;8134;49.552;7.632;2023-03-23T07:49:13;13.40;99.90
16060;DHT22;8134;49.552;7.632;2023-03-23T07:51:39;13.40;99.90
16060;DHT22;8134;49.552;7.632;2023-03-23T07:54:05;13.40;99.90
16060;DHT22;8134;49.552;7.632;2023-03-23T07:56:33;13.40;99.90
16060;DHT22;8134;49.552;7.632;2023-03-23T07:58:58;13.40;99.90
16060;DHT22;8134;49.552;7.632;2023-03-23T08:01:24;13.30;99.90
16060;DHT22;8134;49.552;7.632;2023-03-23T08:03:50;13.30;99.90
16060;DHT22;8134;49.552;7.632;2023-03-23T08:06:17;13.30;99.90
16060;DHT22;8134;49.552;7.632;2023-03-23T08:08:42;13.40;99.90
16060;DHT22;8134;49.552;7.632;2023-03-23T08:11:08;13.50;99.90
16060;DHT22;8134;49.552;7.632;2023-03-23T08:13:35;13.50;99.90
16060;DHT22;8134;49.552;7.632;2023-03-23T08:16:01;13.70;99.90
16060;DHT22;8134;49.552;7.632;2023-03-23T08:18:30;13.60;99.90
16060;DHT22;8134;49.552;7.632;2023-03-23T08:20:55;13.60;99.90
16060;DHT22;8134;49.552;7.632;2023-03-23T08:23:21;13.60;99.90
16060;DHT22;8134;49.552;7.632;2023-03-23T08:25:47;13.70;99.90
16060;DHT22;8134;49.552;7.632;2023-03-23T08:28:13;13.70;99.90
16060;DHT22;8134;49.552;7.632;2023-03-23T08:30:41;13.60;99.90
16060;DHT22;8134;49.552;7.632;2023-03-23T08:33:07;13.60;99.90
16060;DHT22;8134;49.552;7.632;2023-03-23T08:35:34;13.60;99.90
16060;DHT22;8134;49.552;7.632;2023-03-23T08:37:59;13.50;99.90
16060;DHT22;8134;49.552;7.632;2023-03-23T08:40:25;13.50;99.90
16060;DHT22;8134;49.552;7.632;2023-03-23T08:42:51;13.40;99.90
16060;DHT22;8134;49.552;7.632;2023-03-23T08:45:18;13.40;99.90
16060;DHT22;8134;49.552;7.632;2023-03-23T08:47:44;13.30;99.90
16060;DHT22;8134;49.552;7.632;2023-03-23T08:50:12;13.20;99.90
16060;DHT22;8134;49.552;7.632;2023-03-23T08:52:38;13.20;99.90
16060;DHT22;8134;49.552;7.632;2023-03-23T08:55:05;13.40;99.90
16060;DHT22;8134;49.552;7.632;2023-03-23T08:57:34;13.50;99.90
16060;DHT22;8134;49.552;7.632;2023-03-23T08:59:59;13.60;99.90
16060;DHT22;8134;49.552;7.632;2023-03-23T09:02:38;13.70;99.90
16060;DHT22;8134;49.552;7.632;2023-03-23T09:05:03;13.70;99.90
16060;DHT22;8134;49.552;7.632;2023-03-23T09:07:29;13.80;99.90
16060;DHT22;8134;49.552;7.632;2023-03-23T09:09:55;13.80;99.90
16060;DHT22;8134;49.552;7.632;2023-03-23T09:12:21;13.70;99.90
16060;DHT22;8134;49.552;7.632;2023-03-23T09:14:46;13.80;99.90
16060;DHT22;8134;49.552;7.632;2023-03-23T09:17:12;13.90;99.90
16060;DHT22;8134;49.552;7.632;2023-03-23T09:19:37;14.00;99.90
16060;DHT22;8134;49.552;7.632;2023-03-23T09:22:03;14.20;99.90
16060;DHT22;8134;49.552;7.632;2023-03-23T09:24:29;14.30;99.90
16060;DHT22;8134;49.552;7.632;2023-03-23T09:26:55;14.30;99.90
16060;DHT22;8134;49.552;7.632;2023-03-23T09:29:20;14.40;99.90
16060;DHT22;8134;49.552;7.632;2023-03-23T09:31:46;14.40;99.90
16060;DHT22;8134;49.552;7.632;2023-03-23T09:34:12;14.30;99.90
16060;DHT22;8134;49.552;7.632;2023-03-23T09:36:37;14.30;99.90
16060;DHT22;8134;49.552;7.632;2023-03-23T09:39:07;14.10;99.90
16060;DHT22;8134;49.552;7.632;2023-03-23T09:44:38;13.80;99.90
16060;DHT22;8134;49.552;7.632;2023-03-23T09:49:55;13.80;99.90
16060;DHT22;8134;49.552;7.632;2023-03-23T09:52:22;13.90;99.90
16060;DHT22;8134;49.552;7.632;2023-03-23T09:54:52;14.00;99.90
16060;DHT22;8134;49.552;7.632;2023-03-23T10:02:33;14.10;99.90
16060;DHT22;8134;49.552;7.632;2023-03-23T10:07:46;14.10;99.90
16060;DHT22;8134;49.552;7.632;2023-03-23T10:10:13;14.30;99.90
16060;DHT22;8134;49.552;7.632;2023-03-23T10:15:27;14.50;99.90
16060;DHT22;8134;49.552;7.632;2023-03-23T10:18:00;14.50;99.90
16060;DHT22;8134;49.552;7.632;2023-03-23T10:25:27;14.50;99.90
16060;DHT22;8134;49.552;7.632;2023-03-23T10:30:41;14.50;99.90
16060;DHT22;8134;49.552;7.632;2023-03-23T10:38:11;14.60;99.90
16060;DHT22;8134;49.552;7.632;2023-03-23T10:40:43;14.70;99.90
16060;DHT22;8134;49.552;7.632;2023-03-23T10:43:10;14.80;99.90
16060;DHT22;8134;49.552;7.632;2023-03-23T10:45:35;14.70;99.90
16060;DHT22;8134;49.552;7.632;2023-03-23T10:48:07;14.60;99.90
16060;DHT22;8134;49.552;7.632;2023-03-23T10:50:35;14.60;99.90
16060;DHT22;8134;49.552;7.632;2023-03-23T10:53:03;14.50;99.90
16060;DHT22;8134;49.552;7.632;2023-03-23T10:55:37;14.50;99.90
16060;DHT22;8134;49.552;7.632;2023-03-23T10:58:06;14.60;99.90
16060;DHT22;8134;49.552;7.632;2023-03-23T11:00:31;14.70;99.90
16060;DHT22;8134;49.552;7.632;2023-03-23T11:03:20;14.70;99.90
16060;DHT22;8134;49.552;7.632;2023-03-23T11:08:19;14.70;99.90
16060;DHT22;8134;49.552;7.632;2023-03-23T11:10:49;14.60;99.90
16060;DHT22;8134;49.552;7.632;2023-03-23T11:13:16;14.40;99.90
16060;DHT22;8134;49.552;7.632;2023-03-23T11:15:42;14.20;99.90
16060;DHT22;8134;49.552;7.632;2023-03-23T11:18:18;14.10;99.90
16060;DHT22;8134;49.552;7.632;2023-03-23T11:20:45;14.30;99.90
16060;DHT22;8134;49.552;7.632;2023-03-23T11:23:21;14.20;99.90
16060;DHT22;8134;49.552;7.632;2023-03-23T11:25:50;14.30;99.90
16060;DHT22;8134;49.552;7.632;2023-03-23T11:28:17;14.30;99.90
16060;DHT22;8134;49.552;7.632;2023-03-23T11:30:43;14.40;99.90
16060;DHT22;8134;49.552;7.632;2023-03-23T11:33:08;14.50;99.90
16060;DHT22;8134;49.552;7.632;2023-03-23T11:35:33;14.70;99.90
16060;DHT22;8134;49.552;7.632;2023-03-23T11:37:59;14.80;99.90
16060;DHT22;8134;49.552;7.632;2023-03-23T11:40:26;15.00;99.90
16060;DHT22;8134;49.552;7.632;2023-03-23T11:47:47;15.10;99.90
16060;DHT22;8134;49.552;7.632;2023-03-23T11:50:18;15.00;99.90
16060;DHT22;8134;49.552;7.632;2023-03-23T11:56:00;15.10;99.90
16060;DHT22;8134;49.552;7.632;2023-03-23T11:58:00;15.10;99.90
16060;DHT22;8134;49.552;7.632;2023-03-23T12:00:26;15.00;99.90
16060;DHT22;8134;49.552;7.632;2023-03-23T12:02:54;15.00;99.90
16060;DHT22;8134;49.552;7.632;2023-03-23T12:15:38;14.80;99.90
16060;DHT22;8134;49.552;7.632;2023-03-23T12:21:06;14.60;99.90
16060;DHT22;8134;49.552;7.632;2023-03-23T12:23:59;14.70;99.90
16060;DHT22;8134;49.552;7.632;2023-03-23T12:26:34;14.80;99.90
16060;DHT22;8134;49.552;7.632;2023-03-23T12:34:33;15.10;99.90
16060;DHT22;8134;49.552;7.632;2023-03-23T12:39:47;15.20;99.90
16060;DHT22;8134;49.552;7.632;2023-03-23T12:45:01;15.20;99.90
16060;DHT22;8134;49.552;7.632;2023-03-23T12:49:58;14.90;99.90
16060;DHT22;8134;49.552;7.632;2023-03-23T12:52:37;14.90;99.90
16060;DHT22;8134;49.552;7.632;2023-03-23T13:00:27;15.40;99.90
16060;DHT22;8134;49.552;7.632;2023-03-23T13:02:59;15.40;99.90
16060;DHT22;8134;49.552;7.632;2023-03-23T13:05:27;15.20;99.90
16060;DHT22;8134;49.552;7.632;2023-03-23T13:07:56;15.00;99.90
16060;DHT22;8134;49.552;7.632;2023-03-23T13:10:23;14.90;99.90
16060;DHT22;8134;49.552;7.632;2023-03-23T13:12:50;14.90;99.90
16060;DHT22;8134;49.552;7.632;2023-03-23T13:22:56;14.90;99.90
16060;DHT22;8134;49.552;7.632;2023-03-23T13:25:45;14.90;99.90
16060;DHT22;8134;49.552;7.632;2023-03-23T13:28:15;14.80;99.90
16060;DHT22;8134;49.552;7.632;2023-03-23T13:30:40;14.80;99.90
16060;DHT22;8134;49.552;7.632;2023-03-23T13:33:06;14.90;99.90
16060;DHT22;8134;49.552;7.632;2023-03-23T13:35:37;15.00;99.90
16060;DHT22;8134;49.552;7.632;2023-03-23T13:38:25;15.00;99.90
16060;DHT22;8134;49.552;7.632;2023-03-23T13:40:50;15.00;99.90
16060;DHT22;8134;49.552;7.632;2023-03-23T13:43:24;15.10;99.90
16060;DHT22;8134;49.552;7.632;2023-03-23T13:45:51;15.30;99.90
16060;DHT22;8134;49.552;7.632;2023-03-23T13:48:18;15.20;99.90
16060;DHT22;8134;49.552;7.632;2023-03-23T13:50:54;15.10;99.90
16060;DHT22;8134;49.552;7.632;2023-03-23T13:53:22;14.90;99.90
16060;DHT22;8134;49.552;7.632;2023-03-23T13:55:49;15.00;99.90
16060;DHT22;8134;49.552;7.632;2023-03-23T13:58:22;15.00;99.90
16060;DHT22;8134;49.552;7.632;2023-03-23T14:00:49;15.00;99.90
16060;DHT22;8134;49.552;7.632;2023-03-23T14:03:25;14.90;99.90
16060;DHT22;8134;49.552;7.632;2023-03-23T14:10:59;14.70;99.90
16060;DHT22;8134;49.552;7.632;2023-03-23T14:13:32;14.70;99.90
16060;DHT22;8134;49.552;7.632;2023-03-23T14:16:00;14.70;99.90
16060;DHT22;8134;49.552;7.632;2023-03-23T14:18:30;14.70;99.90
16060;DHT22;8134;49.552;7.632;2023-03-23T14:20:56;14.60;99.90
16060;DHT22;8134;49.552;7.632;2023-03-23T14:23:22;14.50;99.90
16060;DHT22;8134;49.552;7.632;2023-03-23T14:25:55;14.50;99.90
16060;DHT22;8134;49.552;7.632;2023-03-23T14:28:21;14.50;99.90
16060;DHT22;8134;49.552;7.632;2023-03-23T14:30:48;14.30;99.90
16060;DHT22;8134;49.552;7.632;2023-03-23T14:33:17;14.30;99.90
16060;DHT22;8134;49.552;7.632;2023-03-23T14:35:45;14.40;99.90
16060;DHT22;8134;49.552;7.632;2023-03-23T14:38:14;14.30;99.90
16060;DHT22;8134;49.552;7.632;2023-03-23T14:40:40;14.10;99.90
16060;DHT22;8134;49.552;7.632;2023-03-23T14:43:07;14.00;99.90
16060;DHT22;8134;49.552;7.632;2023-03-23T14:45:34;13.90;99.90
16060;DHT22;8134;49.552;7.632;2023-03-23T14:48:01;13.90;99.90
16060;DHT22;8134;49.552;7.632;2023-03-23T14:50:36;14.00;99.90
16060;DHT22;8134;49.552;7.632;2023-03-23T14:53:07;14.10;99.90
16060;DHT22;8134;49.552;7.632;2023-03-23T14:55:34;14.20;99.90
16060;DHT22;8134;49.552;7.632;2023-03-23T14:58:07;14.30;99.90
16060;DHT22;8134;49.552;7.632;2023-03-23T15:00:36;14.30;99.90
16060;DHT22;8134;49.552;7.632;2023-03-23T15:03:04;14.20;99.90
16060;DHT22;8134;49.552;7.632;2023-03-23T15:05:31;14.20;99.90
16060;DHT22;8134;49.552;7.632;2023-03-23T15:08:03;14.30;99.90
16060;DHT22;8134;49.552;7.632;2023-03-23T15:10:29;14.30;99.90
16060;DHT22;8134;49.552;7.632;2023-03-23T15:12:55;14.30;99.90
16060;DHT22;8134;49.552;7.632;2023-03-23T15:15:32;14.40;99.90
16060;DHT22;8134;49.552;7.632;2023-03-23T15:17:59;14.40;99.90
16060;DHT22;8134;49.552;7.632;2023-03-23T15:22:50;14.70;99.90
16060;DHT22;8134;49.552;7.632;2023-03-23T15:25:20;14.60;99.90
16060;DHT22;8134;49.552;7.632;2023-03-23T15:27:54;14.70;99.90
16060;DHT22;8134;49.552;7.632;2023-03-23T15:32:52;14.70;99.90
16060;DHT22;8134;49.552;7.632;2023-03-23T15:35:20;14.70;99.90
16060;DHT22;8134;49.552;7.632;2023-03-23T15:37:47;14.60;99.90
16060;DHT22;8134;49.552;7.632;2023-03-23T15:40:16;14.60;99.90
16060;DHT22;8134;49.552;7.632;2023-03-23T15:42:42;14.50;99.90
16060;DHT22;8134;49.552;7.632;2023-03-23T15:50:04;14.60;99.90
16060;DHT22;8134;49.552;7.632;2023-03-23T15:52:32;14.70;99.90
16060;DHT22;8134;49.552;7.632;2023-03-23T15:54:58;14.70;99.90
16060;DHT22;8134;49.552;7.632;2023-03-23T15:57:23;14.70;99.90
16060;DHT22;8134;49.552;7.632;2023-03-23T15:59:49;14.70;99.90
16060;DHT22;8134;49.552;7.632;2023-03-23T16:02:19;14.70;99.90
16060;DHT22;8134;49.552;7.632;2023-03-23T16:04:45;14.70;99.90
16060;DHT22;8134;49.552;7.632;2023-03-23T16:07:11;14.70;99.90
16060;DHT22;8134;49.552;7.632;2023-03-23T16:09:38;14.60;99.90
16060;DHT22;8134;49.552;7.632;2023-03-23T16:12:09;14.60;99.90
16060;DHT22;8134;49.552;7.632;2023-03-23T16:14:34;14.60;99.90
16060;DHT22;8134;49.552;7.632;2023-03-23T16:17:00;14.60;99.90
16060;DHT22;8134;49.552;7.632;2023-03-23T16:19:25;14.60;99.90
16060;DHT22;8134;49.552;7.632;2023-03-23T16:21:51;14.70;99.90
16060;DHT22;8134;49.552;7.632;2023-03-23T16:24:16;14.60;99.90
16060;DHT22;8134;49.552;7.632;2023-03-23T16:26:42;14.70;99.90
16060;DHT22;8134;49.552;7.632;2023-03-23T16:29:11;14.70;99.90
16060;DHT22;8134;49.552;7.632;2023-03-23T16:31:37;14.70;99.90
16060;DHT22;8134;49.552;7.632;2023-03-23T16:34:03;14.70;99.90
16060;DHT22;8134;49.552;7.632;2023-03-23T16:36:28;14.70;99.90
16060;DHT22;8134;49.552;7.632;2023-03-23T16:38:54;14.60;99.90
16060;DHT22;8134;49.552;7.632;2023-03-23T16:41:19;14.70;99.90
16060;DHT22;8134;49.552;7.632;2023-03-23T16:43:45;14.70;99.90
16060;DHT22;8134;49.552;7.632;2023-03-23T16:46:11;14.70;99.90
16060;DHT22;8134;49.552;7.632;2023-03-23T16:48:37;14.60;99.90
16060;DHT22;8134;49.552;7.632;2023-03-23T16:51:03;14.60;99.90
16060;DHT22;8134;49.552;7.632;2023-03-23T16:53:28;14.60;99.90
16060;DHT22;8134;49.552;7.632;2023-03-23T16:55:54;14.60;99.90
16060;DHT22;8134;49.552;7.632;2023-03-23T16:58:21;14.50;99.90
16060;DHT22;8134;49.552;7.632;2023-03-23T17:00:47;14.50;99.90
16060;DHT22;8134;49.552;7.632;2023-03-23T17:03:14;14.50;99.90
16060;DHT22;8134;49.552;7.632;2023-03-23T17:05:40;14.50;99.90
16060;DHT22;8134;49.552;7.632;2023-03-23T17:08:07;14.40;99.90
16060;DHT22;8134;49.552;7.632;2023-03-23T17:10:32;14.40;99.90
16060;DHT22;8134;49.552;7.632;2023-03-23T17:12:58;14.30;99.90
16060;DHT22;8134;49.552;7.632;2023-03-23T17:15:23;14.30;99.90
16060;DHT22;8134;49.552;7.632;2023-03-23T17:17:50;14.20;99.90
16060;DHT22;8134;49.552;7.632;2023-03-23T17:20:16;14.20;99.90
16060;DHT22;8134;49.552;7.632;2023-03-23T17:22:41;14.20;99.90
16060;DHT22;8134;49.552;7.632;2023-03-23T17:25:07;14.20;99.90
16060;DHT22;8134;49.552;7.632;2023-03-23T17:27:34;14.20;99.90
16060;DHT22;8134;49.552;7.632;2023-03-23T17:29:59;14.10;99.90
16060;DHT22;8134;49.552;7.632;2023-03-23T17:32:25;14.10;99.90
16060;DHT22;8134;49.552;7.632;2023-03-23T17:34:51;14.10;99.90
16060;DHT22;8134;49.552;7.632;2023-03-23T17:37:18;14.10;99.90
16060;DHT22;8134;49.552;7.632;2023-03-23T17:39:44;14.10;99.90
16060;DHT22;8134;49.552;7.632;2023-03-23T17:42:09;14.00;99.90
16060;DHT22;8134;49.552;7.632;2023-03-23T17:44:35;14.00;99.90
16060;DHT22;8134;49.552;7.632;2023-03-23T17:47:00;13.90;99.90
16060;DHT22;8134;49.552;7.632;2023-03-23T17:49:26;13.80;99.90
16060;DHT22;8134;49.552;7.632;2023-03-23T17:51:55;13.80;99.90
16060;DHT22;8134;49.552;7.632;2023-03-23T17:54:22;13.70;99.90
16060;DHT22;8134;49.552;7.632;2023-03-23T17:56:50;13.60;99.90
16060;DHT22;8134;49.552;7.632;2023-03-23T17:59:15;13.60;99.90
16060;DHT22;8134;49.552;7.632;2023-03-23T18:01:41;13.60;99.90
16060;DHT22;8134;49.552;7.632;2023-03-23T18:04:06;13.60;99.90
16060;DHT22;8134;49.552;7.632;2023-03-23T18:06:32;13.60;99.90
16060;DHT22;8134;49.552;7.632;2023-03-23T18:08:58;13.60;99.90
16060;DHT22;8134;49.552;7.632;2023-03-23T18:11:23;13.50;99.90
16060;DHT22;8134;49.552;7.632;2023-03-23T18:13:48;13.50;99.90
16060;DHT22;8134;49.552;7.632;2023-03-23T18:16:14;13.50;99.90
16060;DHT22;8134;49.552;7.632;2023-03-23T18:18:40;13.60;99.90
16060;DHT22;8134;49.552;7.632;2023-03-23T18:21:06;13.40;99.90
16060;DHT22;8134;49.552;7.632;2023-03-23T18:23:33;13.40;99.90
16060;DHT22;8134;49.552;7.632;2023-03-23T18:26:04;13.30;99.90
16060;DHT22;8134;49.552;7.632;2023-03-23T18:28:29;13.30;99.90
16060;DHT22;8134;49.552;7.632;2023-03-23T18:31:00;13.40;99.90
16060;DHT22;8134;49.552;7.632;2023-03-23T18:33:26;13.40;99.90
16060;DHT22;8134;49.552;7.632;2023-03-23T18:35:55;13.40;99.90
16060;DHT22;8134;49.552;7.632;2023-03-23T18:38:21;13.50;99.90
16060;DHT22;8134;49.552;7.632;2023-03-23T18:40:46;13.50;99.90
16060;DHT22;8134;49.552;7.632;2023-03-23T18:43:12;13.50;99.90
16060;DHT22;8134;49.552;7.632;2023-03-23T18:45:38;13.50;99.90
16060;DHT22;8134;49.552;7.632;2023-03-23T18:48:04;13.50;99.90
16060;DHT22;8134;49.552;7.632;2023-03-23T18:50:30;13.60;99.90
16060;DHT22;8134;49.552;7.632;2023-03-23T18:52:55;13.50;99.90
16060;DHT22;8134;49.552;7.632;2023-03-23T18:55:21;13.50;99.90
16060;DHT22;8134;49.552;7.632;2023-03-23T18:57:48;13.50;99.90
16060;DHT22;8134;49.552;7.632;2023-03-23T19:00:13;13.70;99.90
16060;DHT22;8134;49.552;7.632;2023-03-23T19:02:39;13.50;99.90
16060;DHT22;8134;49.552;7.632;2023-03-23T19:05:05;13.50;99.90
16060;DHT22;8134;49.552;7.632;2023-03-23T19:07:32;13.60;99.90
16060;DHT22;8134;49.552;7.632;2023-03-23T19:09:57;13.60;99.90
16060;DHT22;8134;49.552;7.632;2023-03-23T19:12:22;13.50;99.90
16060;DHT22;8134;49.552;7.632;2023-03-23T19:14:48;13.60;99.90
16060;DHT22;8134;49.552;7.632;2023-03-23T19:17:15;13.40;99.90
16060;DHT22;8134;49.552;7.632;2023-03-23T19:19:40;13.40;99.90
16060;DHT22;8134;49.552;7.632;2023-03-23T19:22:06;13.40;99.90
16060;DHT22;8134;49.552;7.632;2023-03-23T19:24:32;13.40;99.90
16060;DHT22;8134;49.552;7.632;2023-03-23T19:26:57;13.30;99.90
16060;DHT22;8134;49.552;7.632;2023-03-23T19:29:23;13.30;99.90
16060;DHT22;8134;49.552;7.632;2023-03-23T19:31:50;13.10;99.90
16060;DHT22;8134;49.552;7.632;2023-03-23T19:34:16;13.00;99.90
16060;DHT22;8134;49.552;7.632;2023-03-23T19:36:42;13.00;99.90
16060;DHT22;8134;49.552;7.632;2023-03-23T19:39:11;12.90;99.90
16060;DHT22;8134;49.552;7.632;2023-03-23T19:41:37;12.80;99.90
16060;DHT22;8134;49.552;7.632;2023-03-23T19:44:02;12.80;99.90
16060;DHT22;8134;49.552;7.632;2023-03-23T19:46:28;12.80;99.90
16060;DHT22;8134;49.552;7.632;2023-03-23T19:48:54;12.90;99.90
16060;DHT22;8134;49.552;7.632;2023-03-23T19:51:20;12.90;99.90
16060;DHT22;8134;49.552;7.632;2023-03-23T19:53:46;12.80;99.90
16060;DHT22;8134;49.552;7.632;2023-03-23T19:56:13;12.70;99.90
16060;DHT22;8134;49.552;7.632;2023-03-23T19:58:38;12.70;99.90
16060;DHT22;8134;49.552;7.632;2023-03-23T20:01:04;12.70;99.90
16060;DHT22;8134;49.552;7.632;2023-03-23T20:03:30;12.50;99.90
16060;DHT22;8134;49.552;7.632;2023-03-23T20:06:02;12.50;99.90
16060;DHT22;8134;49.552;7.632;2023-03-23T20:08:28;12.50;99.90
16060;DHT22;8134;49.552;7.632;2023-03-23T20:11:04;12.50;99.90
16060;DHT22;8134;49.552;7.632;2023-03-23T20:13:30;12.50;99.90
16060;DHT22;8134;49.552;7.632;2023-03-23T20:15:56;12.40;99.90
16060;DHT22;8134;49.552;7.632;2023-03-23T20:18:21;12.40;99.90
16060;DHT22;8134;49.552;7.632;2023-03-23T20:20:47;12.30;99.90
16060;DHT22;8134;49.552;7.632;2023-03-23T20:23:12;12.30;99.90
16060;DHT22;8134;49.552;7.632;2023-03-23T20:25:38;12.20;99.90
16060;DHT22;8134;49.552;7.632;2023-03-23T20:28:03;12.40;99.90
16060;DHT22;8134;49.552;7.632;2023-03-23T20:30:30;12.40;99.90
16060;DHT22;8134;49.552;7.632;2023-03-23T20:32:57;12.50;99.90
16060;DHT22;8134;49.552;7.632;2023-03-23T20:35:25;12.50;99.90
16060;DHT22;8134;49.552;7.632;2023-03-23T20:37:51;12.50;99.90
16060;DHT22;8134;49.552;7.632;2023-03-23T20:40:17;12.70;99.90
16060;DHT22;8134;49.552;7.632;2023-03-23T20:42:45;12.70;99.90
16060;DHT22;8134;49.552;7.632;2023-03-23T20:45:11;12.60;99.90
16060;DHT22;8134;49.552;7.632;2023-03-23T20:47:37;12.70;99.90
16060;DHT22;8134;49.552;7.632;2023-03-23T20:50:03;12.70;99.90
16060;DHT22;8134;49.552;7.632;2023-03-23T20:52:28;12.80;99.90
16060;DHT22;8134;49.552;7.632;2023-03-23T20:54:54;12.70;99.90
16060;DHT22;8134;49.552;7.632;2023-03-23T20:57:20;12.90;99.90
16060;DHT22;8134;49.552;7.632;2023-03-23T20:59:46;12.90;99.90
16060;DHT22;8134;49.552;7.632;2023-03-23T21:02:13;12.80;99.90
16060;DHT22;8134;49.552;7.632;2023-03-23T21:04:39;12.80;99.90
16060;DHT22;8134;49.552;7.632;2023-03-23T21:07:07;12.80;99.90
16060;DHT22;8134;49.552;7.632;2023-03-23T21:09:33;13.00;99.90
16060;DHT22;8134;49.552;7.632;2023-03-23T21:11:59;12.90;99.90
16060;DHT22;8134;49.552;7.632;2023-03-23T21:14:25;12.80;99.90
16060;DHT22;8134;49.552;7.632;2023-03-23T21:16:51;12.90;99.90
16060;DHT22;8134;49.552;7.632;2023-03-23T21:19:17;13.10;99.90
16060;DHT22;8134;49.552;7.632;2023-03-23T21:21:43;13.00;99.90
16060;DHT22;8134;49.552;7.632;2023-03-23T21:24:09;13.00;99.90
16060;DHT22;8134;49.552;7.632;2023-03-23T21:26:35;13.00;99.90
16060;DHT22;8134;49.552;7.632;2023-03-23T21:29:01;13.10;99.90
16060;DHT22;8134;49.552;7.632;2023-03-23T21:31:28;13.00;99.90
16060;DHT22;8134;49.552;7.632;2023-03-23T21:33:56;13.00;99.90
16060;DHT22;8134;49.552;7.632;2023-03-23T21:36:22;13.20;99.90
16060;DHT22;8134;49.552;7.632;2023-03-23T21:38:49;13.30;99.90
16060;DHT22;8134;49.552;7.632;2023-03-23T21:41:14;13.30;99.90
16060;DHT22;8134;49.552;7.632;2023-03-23T21:43:40;13.20;99.90
16060;DHT22;8134;49.552;7.632;2023-03-23T21:46:06;13.10;99.90
16060;DHT22;8134;49.552;7.632;2023-03-23T21:48:33;13.00;99.90
16060;DHT22;8134;49.552;7.632;2023-03-23T21:51:10;13.00;99.90
16060;DHT22;8134;49.552;7.632;2023-03-23T21:53:36;13.10;99.90
16060;DHT22;8134;49.552;7.632;2023-03-23T21:56:02;13.10;99.90
16060;DHT22;8134;49.552;7.632;2023-03-23T21:58:29;13.20;99.90
16060;DHT22;8134;49.552;7.632;2023-03-23T22:00:55;13.20;99.90
16060;DHT22;8134;49.552;7.632;2023-03-23T22:03:21;13.20;99.90
16060;DHT22;8134;49.552;7.632;2023-03-23T22:05:48;13.20;99.90
16060;DHT22;8134;49.552;7.632;2023-03-23T22:08:25;13.10;99.90
16060;DHT22;8134;49.552;7.632;2023-03-23T22:10:52;13.10;99.90
16060;DHT22;8134;49.552;7.632;2023-03-23T22:13:22;13.10;99.90
16060;DHT22;8134;49.552;7.632;2023-03-23T22:15:48;13.00;99.90
16060;DHT22;8134;49.552;7.632;2023-03-23T22:18:14;13.00;99.90
16060;DHT22;8134;49.552;7.632;2023-03-23T22:20:40;13.00;99.90
16060;DHT22;8134;49.552;7.632;2023-03-23T22:23:06;12.90;99.90
16060;DHT22;8134;49.552;7.632;2023-03-23T22:25:32;12.90;99.90
16060;DHT22;8134;49.552;7.632;2023-03-23T22:27:58;12.80;99.90
16060;DHT22;8134;49.552;7.632;2023-03-23T22:30:24;12.80;99.90
16060;DHT22;8134;49.552;7.632;2023-03-23T22:32:54;12.80;99.90
16060;DHT22;8134;49.552;7.632;2023-03-23T22:35:20;12.80;99.90
16060;DHT22;8134;49.552;7.632;2023-03-23T22:37:45;12.80;99.90
16060;DHT22;8134;49.552;7.632;2023-03-23T22:40:11;12.80;99.90
16060;DHT22;8134;49.552;7.632;2023-03-23T22:42:37;12.80;99.90
16060;DHT22;8134;49.552;7.632;2023-03-23T22:45:02;12.80;99.90
16060;DHT22;8134;49.552;7.632;2023-03-23T22:47:28;12.80;99.90
16060;DHT22;8134;49.552;7.632;2023-03-23T22:49:54;12.70;99.90
16060;DHT22;8134;49.552;7.632;2023-03-23T22:52:19;12.70;99.90
16060;DHT22;8134;49.552;7.632;2023-03-23T22:54:45;12.70;99.90
16060;DHT22;8134;49.552;7.632;2023-03-23T22:57:12;12.80;99.90
16060;DHT22;8134;49.552;7.632;2023-03-23T22:59:37;12.70;99.90
16060;DHT22;8134;49.552;7.632;2023-03-23T23:02:03;12.70;99.90
16060;DHT22;8134;49.552;7.632;2023-03-23T23:04:28;12.70;99.90
16060;DHT22;8134;49.552;7.632;2023-03-23T23:06:54;12.70;99.90
16060;DHT22;8134;49.552;7.632;2023-03-23T23:09:20;12.70;99.90
16060;DHT22;8134;49.552;7.632;2023-03-23T23:11:46;12.70;99.90
16060;DHT22;8134;49.552;7.632;2023-03-23T23:14:12;12.80;99.90
16060;DHT22;8134;49.552;7.632;2023-03-23T23:16:38;12.80;99.90
16060;DHT22;8134;49.552;7.632;2023-03-23T23:19:04;12.80;99.90
16060;DHT22;8134;49.552;7.632;2023-03-23T23:21:29;12.80;99.90
16060;DHT22;8134;49.552;7.632;2023-03-23T23:23:55;12.70;99.90
16060;DHT22;8134;49.552;7.632;2023-03-23T23:26:21;12.60;99.90
16060;DHT22;8134;49.552;7.632;2023-03-23T23:28:46;12.60;99.90
16060;DHT22;8134;49.552;7.632;2023-03-23T23:31:16;12.60;99.90
16060;DHT22;8134;49.552;7.632;2023-03-23T23:33:43;12.60;99.90
16060;DHT22;8134;49.552;7.632;2023-03-23T23:36:08;12.50;99.90
16060;DHT22;8134;49.552;7.632;2023-03-23T23:38:36;12.50;99.90
16060;DHT22;8134;49.552;7.632;2023-03-23T23:41:02;12.50;99.90
16060;DHT22;8134;49.552;7.632;2023-03-23T23:43:28;12.40;99.90
16060;DHT22;8134;49.552;7.632;2023-03-23T23:45:53;12.30;99.90
16060;DHT22;8134;49.552;7.632;2023-03-23T23:48:19;12.20;99.90
16060;DHT22;8134;49.552;7.632;2023-03-23T23:50:45;12.00;99.90
16060;DHT22;8134;49.552;7.632;2023-03-23T23:53:11;11.90;99.90
16060;DHT22;8134;49.552;7.632;2023-03-23T23:55:37;11.80;99.90
16060;DHT22;8134;49.552;7.632;2023-03-23T23:58:03;11.70;99.90
